Weather History for Hazen, ND

Change the Weather History Date:

Wednesday, January 16, 2013

  Actual Average (KN60) Record (KN60)
Temperature  
Mean Temperature 30 °F -  
Max Temperature 37 °F 16 °F - (-1)
Min Temperature 23 °F 0 °F - (-1)
Degree Days  
Heating Degree Days 35    
Moisture  
Dew Point 25 °F    
Average Humidity 82    
Maximum Humidity 93    
Minimum Humidity 70    
Precipitation  
Precipitation 0.00 in - - ()
Sea Level Pressure  
Sea Level Pressure 29.93 in    
Wind  
Wind Speed 12 mph (WNW)    
Max Wind Speed 17 mph    
Max Gust Speed 24 mph    
Visibility 10 miles    
Events Rain    
Averages and records for this station are not official NWS values.
T = Trace of Precipitation, MM = Missing Value Source: NWS Daily Summary

Daily Weather History Graph

Daily Weather History Graph

Search for Another Location

Airport:

Trip Planner

Search our weather history database for the weather conditions in past years. The results will help you decide how hot, cold, wet, or windy it might be!

Date:

Astronomy

Jan. 16, 2013 Rise Set
Actual Time 8:27 AM CST 5:25 PM CST
Civil Twilight 7:53 AM CST 5:59 PM CST
Nautical Twilight 7:15 AM CST 6:37 PM CST
Astronomical Twilight 6:38 AM CST 7:13 PM CST
Moon 10:39 AM CST (1/16) 11:46 PM CST (1/16)
Length of Visible Light 10h 06m
Length of Day
8h 57m
Waxing Crescent, 28% of the Moon is Illuminated
Jan 16
Waxing Crescent
Jan 18
First Quarter
Jan 26
Full
Feb 3
Last Quarter
Feb 10
New

Hourly Weather History & Observations

Time (CST) Temp. Windchill Dew Point Humidity Pressure Visibility Wind Dir Wind Speed Gust Speed Precip Events Conditions
12:15 AM 37.4 °F 27.8 °F 32.0 °F 81% 29.69 in 10.0 mi WNW 17.3 mph 24.2 mph N/A   Overcast
12:35 AM 37.4 °F 27.8 °F 32.0 °F 81% 29.69 in 10.0 mi WNW 17.3 mph - N/A   Overcast
12:55 AM 37.4 °F 28.2 °F 32.0 °F 81% 29.69 in 10.0 mi West 16.1 mph - N/A   Overcast
1:15 AM 35.6 °F 26.2 °F 32.0 °F 87% 29.70 in 10.0 mi West 15.0 mph - N/A   Overcast
1:35 AM 35.6 °F 26.2 °F 32.0 °F 87% 29.71 in 10.0 mi West 15.0 mph - N/A   Overcast
1:55 AM 35.6 °F 27.5 °F 32.0 °F 87% 29.72 in 10.0 mi West 11.5 mph - N/A   Overcast
2:15 AM 37.4 °F 28.2 °F 32.0 °F 81% 29.72 in 10.0 mi WNW 16.1 mph 20.7 mph N/A Rain Light Rain
2:35 AM 37.4 °F 28.5 °F 32.0 °F 81% 29.73 in 10.0 mi WNW 15.0 mph - N/A Rain Light Rain
2:55 AM 35.6 °F 25.5 °F 32.0 °F 87% 29.73 in 10.0 mi West 17.3 mph - N/A Rain Light Rain
3:15 AM 35.6 °F 26.2 °F 32.0 °F 87% 29.73 in 10.0 mi West 15.0 mph - N/A   Overcast
3:35 AM 35.6 °F 27.1 °F 32.0 °F 87% 29.73 in 10.0 mi West 12.7 mph - N/A   Overcast
3:55 AM 35.6 °F 27.1 °F 32.0 °F 87% 29.72 in 10.0 mi West 12.7 mph - N/A   Overcast
4:15 AM 35.6 °F 28.0 °F 32.0 °F 87% 29.72 in 10.0 mi West 10.4 mph - N/A   Overcast
4:35 AM 35.6 °F 28.0 °F 32.0 °F 87% 29.72 in 10.0 mi West 10.4 mph - N/A   Overcast
4:55 AM 35.6 °F 26.6 °F 32.0 °F 87% 29.71 in 10.0 mi West 13.8 mph - N/A   Overcast
5:15 AM 35.6 °F 26.6 °F 32.0 °F 87% 29.70 in 10.0 mi West 13.8 mph - N/A   Overcast
5:35 AM 35.6 °F 26.6 °F 30.2 °F 81% 29.71 in 10.0 mi West 13.8 mph - N/A   Overcast
5:55 AM 35.6 °F 26.2 °F 30.2 °F 81% 29.70 in 10.0 mi West 15.0 mph - N/A   Overcast
6:35 AM 35.6 °F 26.6 °F 30.2 °F 81% 29.71 in 10.0 mi West 13.8 mph - N/A   Overcast
6:55 AM 35.6 °F 26.2 °F 30.2 °F 81% 29.71 in 10.0 mi West 15.0 mph - N/A   Overcast
7:15 AM 35.6 °F 26.2 °F 30.2 °F 81% 29.72 in 10.0 mi West 15.0 mph - N/A   Overcast
7:35 AM 35.6 °F 26.6 °F 30.2 °F 81% 29.73 in 10.0 mi West 13.8 mph - N/A   Overcast
7:55 AM 35.6 °F 28.0 °F 30.2 °F 81% 29.74 in 10.0 mi West 10.4 mph - N/A   Overcast
8:15 AM 35.6 °F 27.5 °F 30.2 °F 81% 29.75 in 10.0 mi West 11.5 mph - N/A   Overcast
8:35 AM 35.6 °F 26.2 °F 30.2 °F 81% 29.76 in 10.0 mi West 15.0 mph - N/A   Scattered Clouds
8:55 AM 37.4 °F 28.5 °F 28.4 °F 70% 29.78 in 10.0 mi WNW 15.0 mph - N/A   Mostly Cloudy
9:15 AM 37.4 °F 28.2 °F 30.2 °F 75% 29.80 in 10.0 mi WNW 16.1 mph 19.6 mph N/A   Overcast
9:35 AM 37.4 °F 28.5 °F 30.2 °F 75% 29.81 in 10.0 mi NW 15.0 mph - N/A   Overcast
9:55 AM 37.4 °F 27.8 °F 30.2 °F 75% 29.83 in 10.0 mi NW 17.3 mph - N/A   Overcast
10:15 AM 32.0 °F 22.1 °F 28.4 °F 87% 29.86 in 10.0 mi NNE 13.8 mph 21.9 mph N/A   Overcast
10:35 AM 32.0 °F 23.0 °F 26.6 °F 80% 29.88 in 10.0 mi NE 11.5 mph 19.6 mph N/A   Overcast
10:55 AM 28.4 °F 17.5 °F 24.8 °F 86% 29.91 in 10.0 mi NE 13.8 mph 20.7 mph N/A   Overcast
11:15 AM 28.4 °F 19.1 °F 24.8 °F 86% 29.93 in 10.0 mi NE 10.4 mph - N/A   Overcast
11:35 AM 26.6 °F 18.2 °F 23.0 °F 86% 29.95 in 9.0 mi NE 8.1 mph - N/A   Overcast
11:55 AM 26.6 °F 18.2 °F 23.0 °F 86% 29.96 in 9.0 mi NE 8.1 mph - N/A   Overcast
12:15 PM 26.6 °F 18.2 °F 21.2 °F 80% 29.97 in 10.0 mi NE 8.1 mph - N/A   Overcast
12:35 PM 26.6 °F 20.0 °F 23.0 °F 86% 29.98 in 10.0 mi NNE 5.8 mph - N/A   Overcast
1:15 PM 26.6 °F 16.8 °F 23.0 °F 86% 29.99 in 10.0 mi North 10.4 mph - N/A   Overcast
1:35 PM 26.6 °F 18.2 °F 21.2 °F 80% 30.00 in 10.0 mi North 8.1 mph - N/A   Overcast
1:55 PM 26.6 °F 18.2 °F 19.4 °F 74% 30.01 in 10.0 mi NNE 8.1 mph - N/A   Scattered Clouds
2:15 PM 24.8 °F 16.1 °F 19.4 °F 80% 30.03 in 10.0 mi North 8.1 mph - N/A   Scattered Clouds
2:35 PM 24.8 °F 15.3 °F 19.4 °F 80% 30.03 in 10.0 mi NE 9.2 mph - N/A   Overcast
2:55 PM 24.8 °F 16.1 °F 19.4 °F 80% 30.05 in 10.0 mi NE 8.1 mph - N/A   Overcast
3:15 PM 24.8 °F 16.1 °F 19.4 °F 80% 30.06 in 10.0 mi NNE 8.1 mph - N/A   Overcast
3:35 PM 23.0 °F 14.7 °F 17.6 °F 80% 30.07 in 10.0 mi NE 6.9 mph - N/A   Overcast
3:55 PM 23.0 °F 13.9 °F 17.6 °F 80% 30.06 in 10.0 mi ENE 8.1 mph - N/A   Overcast
4:15 PM 23.0 °F 11.7 °F 17.6 °F 80% 30.08 in 10.0 mi NE 11.5 mph - N/A   Overcast
4:35 PM 23.0 °F 14.7 °F 17.6 °F 80% 30.10 in 10.0 mi ENE 6.9 mph - N/A   Overcast
4:55 PM 23.0 °F 18.4 °F 17.6 °F 80% 30.12 in 10.0 mi SE 3.5 mph - N/A   Overcast
5:15 PM 23.0 °F 18.4 °F 17.6 °F 80% 30.12 in 10.0 mi SE 3.5 mph - N/A   Overcast
5:35 PM 23.0 °F - 17.6 °F 80% 30.13 in 10.0 mi Calm Calm - N/A   Overcast
5:55 PM 23.0 °F - 17.6 °F 80% 30.14 in 10.0 mi Calm Calm - N/A   Overcast
6:15 PM 23.0 °F - 17.6 °F 80% 30.14 in 10.0 mi Calm Calm - N/A   Overcast
6:35 PM 23.0 °F - 17.6 °F 80% 30.14 in 10.0 mi Calm Calm - N/A   Overcast
6:55 PM 23.0 °F - 17.6 °F 80% 30.15 in 10.0 mi Calm Calm - N/A   Overcast
7:15 PM 23.0 °F - 17.6 °F 80% 30.15 in 10.0 mi Calm Calm - N/A   Overcast
7:35 PM 23.0 °F 17.0 °F 17.6 °F 80% 30.14 in 10.0 mi SW 4.6 mph - N/A   Overcast
7:55 PM 23.0 °F 15.8 °F 17.6 °F 80% 30.15 in 10.0 mi WSW 5.8 mph - N/A   Overcast
8:15 PM 23.0 °F 13.9 °F 19.4 °F 86% 30.15 in 10.0 mi SW 8.1 mph - N/A   Overcast
8:35 PM 23.0 °F 13.9 °F 19.4 °F 86% 30.15 in 10.0 mi SW 8.1 mph - N/A   Overcast
8:55 PM 24.8 °F 19.1 °F 19.4 °F 80% 30.15 in 10.0 mi WSW 4.6 mph - N/A   Overcast
9:15 PM 24.8 °F 17.9 °F 19.4 °F 80% 30.15 in 10.0 mi SW 5.8 mph - N/A   Overcast
9:35 PM 24.8 °F 16.1 °F 21.2 °F 86% 30.14 in 10.0 mi SW 8.1 mph - N/A   Overcast
9:55 PM 24.8 °F 16.9 °F 21.2 °F 86% 30.16 in 10.0 mi WSW 6.9 mph - N/A   Overcast
10:15 PM 24.8 °F 16.9 °F 23.0 °F 93% 30.16 in 10.0 mi West 6.9 mph - N/A   Overcast
10:35 PM 26.6 °F 15.7 °F 23.0 °F 86% 30.15 in 10.0 mi SW 12.7 mph - N/A   Overcast
10:55 PM 26.6 °F 17.5 °F 23.0 °F 86% 30.15 in 10.0 mi SW 9.2 mph - N/A   Overcast
11:15 PM 26.6 °F 17.5 °F 23.0 °F 86% 30.15 in 10.0 mi WSW 9.2 mph - N/A   Overcast
11:35 PM 26.6 °F 14.7 °F 23.0 °F 86% 30.16 in 10.0 mi WSW 15.0 mph - N/A   Overcast
11:55 PM 26.6 °F 15.7 °F 23.0 °F 86% 30.17 in 10.0 mi WSW 12.7 mph - N/A   Overcast